Eko 2 — SY9957 — position and weather

sailwx.info

Track history (hours):
 
Tides and Currents Weather Stations Pressure Air Temp Water Temp Dewpoint Dewpoint Depression Visibility Wind Speed Wind Dir Waves Ship Positions

Eko 2

Last reported at 2016-Aug-28 11:24 UTC. Time now 2016-Aug-28 20:37 UTC.
Position N 37°06' E 025°05'.

Length 89 m; draft 4.3 m.

Type: Ship (hazmat cat A). MMSI: 240827000.

Date/timePositionNaut miles runAvg speedWind from/ knotsBaromVisibWave heightAir tempDewpointWater temp
2016-Aug-28 11:24N 37°06' E 025°05'  
2016-Aug-24 04:33N 37°20' E 024°57'1010.1
2016-Aug-24 03:33N 37°28' E 025°05'6 5.2
2016-Aug-24 02:28N 37°32' E 025°09'0 0.0
2016-Aug-24 01:31N 37°32' E 025°09'0 0.0
2016-Aug-24 00:31N 37°32' E 025°09'0 0.0
2016-Aug-23 23:31N 37°32' E 025°09'0 0.0
2016-Aug-23 22:28N 37°32' E 025°09'0 0.0
2016-Aug-23 21:31N 37°32' E 025°09'0 0.0
2016-Aug-23 20:31N 37°32' E 025°09'0 0.0
2016-Aug-23 19:32N 37°32' E 025°09'2 2.2
2016-Aug-23 18:33N 37°31' E 025°07'5 0.5
2016-Aug-23 09:33N 37°28' E 025°02'7 6.9
2016-Aug-23 08:33N 37°32' E 025°09'5 4.5
2016-Aug-23 07:33N 37°29' E 025°05'14 9.4
2016-Aug-23 06:04N 37°16' E 024°59'5 9.6
2016-Aug-23 05:33N 37°11' E 024°58'5 0.2
2016-Aug-21 20:13N 37°06' E 024°56'710.1
2016-Aug-21 19:33N 37°06' E 025°04'1 0.1
2016-Aug-21 03:12N 37°07' E 025°05'5 7.5
2016-Aug-21 02:33N 37°08' E 024°59'54 7.8
2016-Aug-20 19:33N 37°31' E 023°58'8 8.3
2016-Aug-20 18:33N 37°36' E 023°49'8 8.4
2016-Aug-20 17:33N 37°41' E 023°41'9 9.0
2016-Aug-20 16:33N 37°49' E 023°37'8 8.0
2016-Aug-20 15:33N 37°57' E 023°34'5 5.1
2016-Aug-20 14:32N 38°02' E 023°32'0 0.0
2016-Aug-20 13:32N 38°02' E 023°32'0 0.0
2016-Aug-20 12:32N 38°02' E 023°32'0 0.0
2016-Aug-20 11:32N 38°02' E 023°32'0 0.0
2016-Aug-20 10:32N 38°02' E 023°32'0 0.0
2016-Aug-20 09:32N 38°02' E 023°32'0 0.0
2016-Aug-20 08:32N 38°02' E 023°32'0 0.0
2016-Aug-20 07:32N 38°02' E 023°32'0 0.0
2016-Aug-20 06:32N 38°02' E 023°32'0 0.0
2016-Aug-20 05:29N 38°02' E 023°32'0 0.0
2016-Aug-20 04:32N 38°02' E 023°32'0 0.0
2016-Aug-20 03:32N 38°02' E 023°32'0 0.0
2016-Aug-20 02:32N 38°02' E 023°32'0 0.0
2016-Aug-20 01:32N 38°02' E 023°32'0 0.0
2016-Aug-20 00:32N 38°02' E 023°32'0 0.0
2016-Aug-19 23:32N 38°02' E 023°32'0 0.0
2016-Aug-19 22:32N 38°02' E 023°32'0 0.0
2016-Aug-19 21:32N 38°02' E 023°32'0 0.0
2016-Aug-19 20:32N 38°02' E 023°32'0 0.0
2016-Aug-19 19:32N 38°02' E 023°32'0 0.0
2016-Aug-19 18:32N 38°02' E 023°32'0 0.0
2016-Aug-19 17:32N 38°02' E 023°32'0 0.3
2016-Aug-19 16:34N 38°02' E 023°32'3 2.6
2016-Aug-19 15:33N 38°02' E 023°36'0 0.0
2016-Aug-19 14:33N 38°02' E 023°36'0 0.0
2016-Aug-19 13:33N 38°02' E 023°36'0 0.0
2016-Aug-19 12:33N 38°02' E 023°36'0 0.0
2016-Aug-19 11:33N 38°02' E 023°36'0 0.0
2016-Aug-19 10:33N 38°02' E 023°36'0 0.0
2016-Aug-19 09:33N 38°02' E 023°36'0 0.0
2016-Aug-19 08:33N 38°02' E 023°36'1 1.4
2016-Aug-19 07:34N 38°01' E 023°34'5 5.4
2016-Aug-19 06:33N 37°56' E 023°36'6 6.5
2016-Aug-19 05:33N 37°50' E 023°40'10 9.6
2016-Aug-19 04:33N 37°41' E 023°45'10 9.8
2016-Aug-19 03:33N 37°35' E 023°54'1010.4
2016-Aug-19 02:33N 37°28' E 024°04'1010.2
2016-Aug-19 01:33N 37°21' E 024°14'3310.3
2016-Aug-18 22:23N 37°09' E 024°52'810.3
2016-Aug-18 21:33N 37°07' E 025°02'  
Track history (hours):
 
Tides and Currents Weather Stations Pressure Air Temp Water Temp Dewpoint Dewpoint Depression Visibility Wind Speed Wind Dir Waves Ship Positions

Eko 2

Last reported at 2016-Aug-28 11:24 UTC. Time now 2016-Aug-28 20:37 UTC.
Position N 37°06' E 025°05'.

Length 89 m; draft 4.3 m.

Type: Ship (hazmat cat A). MMSI: 240827000.

Date/timePositionNaut miles runAvg speedWind from/ knotsBaromVisibWave heightAir tempDewpointWater temp
2016-Aug-28 11:24N 37°06' E 025°05'  
2016-Aug-24 04:33N 37°20' E 024°57'1010.1
2016-Aug-24 03:33N 37°28' E 025°05'6 5.2
2016-Aug-24 02:28N 37°32' E 025°09'0 0.0
2016-Aug-24 01:31N 37°32' E 025°09'0 0.0
2016-Aug-24 00:31N 37°32' E 025°09'0 0.0
2016-Aug-23 23:31N 37°32' E 025°09'0 0.0
2016-Aug-23 22:28N 37°32' E 025°09'0 0.0
2016-Aug-23 21:31N 37°32' E 025°09'0 0.0
2016-Aug-23 20:31N 37°32' E 025°09'0 0.0
2016-Aug-23 19:32N 37°32' E 025°09'2 2.2
2016-Aug-23 18:33N 37°31' E 025°07'5 0.5
2016-Aug-23 09:33N 37°28' E 025°02'7 6.9
2016-Aug-23 08:33N 37°32' E 025°09'5 4.5
2016-Aug-23 07:33N 37°29' E 025°05'14 9.4
2016-Aug-23 06:04N 37°16' E 024°59'5 9.6
2016-Aug-23 05:33N 37°11' E 024°58'5 0.2
2016-Aug-21 20:13N 37°06' E 024°56'710.1
2016-Aug-21 19:33N 37°06' E 025°04'1 0.1
2016-Aug-21 03:12N 37°07' E 025°05'5 7.5
2016-Aug-21 02:33N 37°08' E 024°59'54 7.8
2016-Aug-20 19:33N 37°31' E 023°58'8 8.3
2016-Aug-20 18:33N 37°36' E 023°49'8 8.4
2016-Aug-20 17:33N 37°41' E 023°41'9 9.0
2016-Aug-20 16:33N 37°49' E 023°37'8 8.0
2016-Aug-20 15:33N 37°57' E 023°34'5 5.1
2016-Aug-20 14:32N 38°02' E 023°32'0 0.0
2016-Aug-20 13:32N 38°02' E 023°32'0 0.0
2016-Aug-20 12:32N 38°02' E 023°32'0 0.0
2016-Aug-20 11:32N 38°02' E 023°32'0 0.0
2016-Aug-20 10:32N 38°02' E 023°32'0 0.0
2016-Aug-20 09:32N 38°02' E 023°32'0 0.0
2016-Aug-20 08:32N 38°02' E 023°32'0 0.0
2016-Aug-20 07:32N 38°02' E 023°32'0 0.0
2016-Aug-20 06:32N 38°02' E 023°32'0 0.0
2016-Aug-20 05:29N 38°02' E 023°32'0 0.0
2016-Aug-20 04:32N 38°02' E 023°32'0 0.0
2016-Aug-20 03:32N 38°02' E 023°32'0 0.0
2016-Aug-20 02:32N 38°02' E 023°32'0 0.0
2016-Aug-20 01:32N 38°02' E 023°32'0 0.0
2016-Aug-20 00:32N 38°02' E 023°32'0 0.0
2016-Aug-19 23:32N 38°02' E 023°32'0 0.0
2016-Aug-19 22:32N 38°02' E 023°32'0 0.0
2016-Aug-19 21:32N 38°02' E 023°32'0 0.0
2016-Aug-19 20:32N 38°02' E 023°32'0 0.0
2016-Aug-19 19:32N 38°02' E 023°32'0 0.0
2016-Aug-19 18:32N 38°02' E 023°32'0 0.0
2016-Aug-19 17:32N 38°02' E 023°32'0 0.3
2016-Aug-19 16:34N 38°02' E 023°32'3 2.6
2016-Aug-19 15:33N 38°02' E 023°36'0 0.0
2016-Aug-19 14:33N 38°02' E 023°36'0 0.0
2016-Aug-19 13:33N 38°02' E 023°36'0 0.0
2016-Aug-19 12:33N 38°02' E 023°36'0 0.0
2016-Aug-19 11:33N 38°02' E 023°36'0 0.0
2016-Aug-19 10:33N 38°02' E 023°36'0 0.0
2016-Aug-19 09:33N 38°02' E 023°36'0 0.0
2016-Aug-19 08:33N 38°02' E 023°36'1 1.4
2016-Aug-19 07:34N 38°01' E 023°34'5 5.4
2016-Aug-19 06:33N 37°56' E 023°36'6 6.5
2016-Aug-19 05:33N 37°50' E 023°40'10 9.6
2016-Aug-19 04:33N 37°41' E 023°45'10 9.8
2016-Aug-19 03:33N 37°35' E 023°54'1010.4
2016-Aug-19 02:33N 37°28' E 024°04'1010.2
2016-Aug-19 01:33N 37°21' E 024°14'3310.3
2016-Aug-18 22:23N 37°09' E 024°52'810.3
2016-Aug-18 21:33N 37°07' E 025°02'  

Dump ship's entire track history